createdAt,value
2023-01-30T00:00:20.971Z,42.80
2023-01-30T00:00:57.814Z,41.57
2023-01-30T00:01:32.651Z,41.33
2023-01-30T00:02:04.377Z,40.57
2023-01-30T00:02:37.990Z,39.90
2023-01-30T00:03:09.659Z,38.93
2023-01-30T00:03:43.080Z,39.47
2023-01-30T00:04:17.147Z,41.13
2023-01-30T00:04:49.053Z,38.80
2023-01-30T00:05:20.715Z,38.83
2023-01-30T00:05:52.997Z,40.07
2023-01-30T00:06:31.431Z,40.27
2023-01-30T00:07:03.087Z,39.07
2023-01-30T00:07:34.705Z,39.17
2023-01-30T00:08:06.352Z,40.07
2023-01-30T00:08:38.743Z,38.77
2023-01-30T00:09:16.378Z,40.00
2023-01-30T00:09:55.166Z,40.43
2023-01-30T00:10:26.816Z,39.47
2023-01-30T00:11:06.920Z,40.87
2023-01-30T00:11:38.580Z,39.87
2023-01-30T00:12:13.062Z,40.07
2023-01-30T00:12:44.765Z,40.90
2023-01-30T00:13:17.001Z,41.13
2023-01-30T00:13:50.754Z,41.40
2023-01-30T00:14:22.484Z,41.97
2023-01-30T00:14:55.726Z,41.77
2023-01-30T00:15:28.890Z,40.87
2023-01-30T00:16:01.082Z,41.93
2023-01-30T00:16:34.036Z,41.00
2023-01-30T00:17:05.777Z,41.97
2023-01-30T00:17:37.448Z,42.30
2023-01-30T00:18:12.984Z,42.80
2023-01-30T00:18:45.094Z,41.53
2023-01-30T00:19:16.714Z,41.37
2023-01-30T00:19:50.733Z,42.27
2023-01-30T00:20:22.466Z,41.73
2023-01-30T00:21:01.177Z,41.27
2023-01-30T00:21:32.948Z,42.03
2023-01-30T00:22:04.662Z,41.80
2023-01-30T00:22:36.306Z,41.47
2023-01-30T00:23:07.968Z,41.00
2023-01-30T00:23:40.021Z,41.03
2023-01-30T00:24:12.000Z,42.07
2023-01-30T00:24:43.758Z,41.50
2023-01-30T00:25:15.686Z,42.63
2023-01-30T00:25:47.523Z,43.47
2023-01-30T00:26:19.466Z,42.93
2023-01-30T00:26:51.165Z,41.73
2023-01-30T00:27:22.836Z,39.73
2023-01-30T00:27:54.597Z,41.43
2023-01-30T00:28:26.469Z,41.10
2023-01-30T00:28:58.182Z,40.77
2023-01-30T00:29:29.813Z,41.33
2023-01-30T00:30:04.371Z,40.80
2023-01-30T00:30:36.084Z,41.83
2023-01-30T00:31:08.341Z,39.90
2023-01-30T00:31:40.039Z,40.67
2023-01-30T00:32:14.644Z,40.20
2023-01-30T00:32:46.295Z,41.77
2023-01-30T00:33:18.782Z,41.53
2023-01-30T00:33:50.434Z,40.90
2023-01-30T00:34:22.111Z,39.97
2023-01-30T00:34:53.780Z,41.70
2023-01-30T00:35:28.675Z,40.80
2023-01-30T00:36:03.680Z,40.97
2023-01-30T00:36:35.399Z,41.00
2023-01-30T00:37:08.623Z,42.63
2023-01-30T00:37:40.385Z,41.63
2023-01-30T00:38:12.315Z,40.60
2023-01-30T00:38:45.548Z,38.77
2023-01-30T00:39:19.327Z,40.20
2023-01-30T00:39:51.374Z,40.37
2023-01-30T00:40:23.059Z,40.90
2023-01-30T00:40:54.787Z,41.60
2023-01-30T00:41:46.410Z,41.50
2023-01-30T00:42:36.560Z,40.17
2023-01-30T00:43:33.994Z,40.73
2023-01-30T00:44:24.637Z,39.63
2023-01-30T00:45:14.993Z,39.83
2023-01-30T00:46:06.890Z,41.57
2023-01-30T00:46:57.089Z,40.07
2023-01-30T00:47:28.718Z,40.30
2023-01-30T00:48:02.971Z,39.97
2023-01-30T00:48:34.697Z,40.70
2023-01-30T00:49:08.933Z,40.33
2023-01-30T00:49:42.298Z,40.20
2023-01-30T00:50:16.549Z,41.13
2023-01-30T00:50:48.182Z,41.37
2023-01-30T00:51:19.848Z,40.13
2023-01-30T00:51:51.777Z,40.50
2023-01-30T00:52:23.433Z,42.20
2023-01-30T00:52:55.078Z,41.40
2023-01-30T00:53:26.788Z,40.30
2023-01-30T00:53:58.450Z,40.93
2023-01-30T00:54:30.970Z,40.60
2023-01-30T00:55:02.869Z,40.37
2023-01-30T00:55:34.547Z,40.67
2023-01-30T00:56:06.781Z,39.93
2023-01-30T00:56:39.825Z,40.47
2023-01-30T00:57:11.465Z,40.53
2023-01-30T00:57:45.153Z,41.77
2023-01-30T00:58:16.848Z,41.93
2023-01-30T00:58:48.533Z,40.90
2023-01-30T00:59:20.179Z,39.60
2023-01-30T00:59:51.858Z,39.73
2023-01-30T01:00:23.500Z,43.13
2023-01-30T01:00:56.225Z,42.33
2023-01-30T01:01:36.591Z,44.03
2023-01-30T01:02:08.309Z,43.73
2023-01-30T01:02:40.010Z,44.07
2023-01-30T01:03:11.736Z,43.37
2023-01-30T01:03:43.753Z,42.20
2023-01-30T01:04:15.434Z,42.10
2023-01-30T01:04:49.141Z,40.73
2023-01-30T01:05:20.936Z,41.27
2023-01-30T01:05:54.732Z,42.60
2023-01-30T01:06:28.805Z,41.93
2023-01-30T01:07:00.458Z,41.87
2023-01-30T01:07:34.684Z,42.50
2023-01-30T01:08:06.894Z,44.10
2023-01-30T01:08:38.631Z,43.57
2023-01-30T01:09:12.936Z,42.40
2023-01-30T01:09:44.590Z,44.53
2023-01-30T01:10:16.709Z,43.37
2023-01-30T01:10:48.491Z,42.63
2023-01-30T01:11:29.106Z,45.03
2023-01-30T01:12:00.810Z,45.30
2023-01-30T01:12:32.477Z,44.20
2023-01-30T01:13:06.483Z,44.60
2023-01-30T01:13:38.104Z,43.80
2023-01-30T01:14:09.861Z,45.43
2023-01-30T01:14:43.658Z,45.03
2023-01-30T01:15:15.768Z,44.70
2023-01-30T01:15:54.646Z,44.63
2023-01-30T01:16:27.885Z,44.27
2023-01-30T01:16:59.754Z,44.40
2023-01-30T01:17:33.450Z,44.37
2023-01-30T01:18:05.362Z,44.43
2023-01-30T01:18:37.135Z,44.23
2023-01-30T01:19:11.095Z,43.67
2023-01-30T01:19:42.754Z,43.73
2023-01-30T01:20:16.471Z,44.20
2023-01-30T01:20:48.216Z,42.73
2023-01-30T01:21:21.651Z,43.50
2023-01-30T01:21:53.345Z,42.47
2023-01-30T01:22:27.043Z,41.83
2023-01-30T01:22:58.785Z,42.23
2023-01-30T01:23:30.425Z,42.77
2023-01-30T01:24:02.148Z,43.10
2023-01-30T01:24:35.725Z,43.10
2023-01-30T01:25:10.073Z,43.73
2023-01-30T01:25:41.740Z,45.40
2023-01-30T01:26:13.404Z,43.03
2023-01-30T01:26:45.551Z,44.03
2023-01-30T01:27:17.886Z,42.70
2023-01-30T01:27:50.260Z,44.87
2023-01-30T01:28:22.320Z,43.63
2023-01-30T01:28:58.130Z,44.57
2023-01-30T01:29:31.854Z,44.47
2023-01-30T01:30:04.493Z,44.77
2023-01-30T01:30:36.174Z,46.03
2023-01-30T01:31:13.281Z,45.13
2023-01-30T01:31:45.567Z,43.10
2023-01-30T01:32:17.336Z,43.67
2023-01-30T01:32:49.043Z,44.03
2023-01-30T01:33:20.724Z,43.53
2023-01-30T01:33:52.437Z,44.20
2023-01-30T01:34:24.105Z,43.50
2023-01-30T01:34:55.762Z,42.63
2023-01-30T01:35:27.409Z,43.67
2023-01-30T01:35:59.036Z,43.17
2023-01-30T01:36:53.224Z,42.47
2023-01-30T01:37:22.477Z,42.47
2023-01-30T01:37:54.717Z,41.40
2023-01-30T01:38:26.380Z,41.13
2023-01-30T01:38:58.124Z,41.37
2023-01-30T01:39:49.723Z,42.33
2023-01-30T01:40:41.060Z,40.80
2023-01-30T01:41:14.373Z,40.40
2023-01-30T01:41:46.015Z,42.10
2023-01-30T01:42:18.463Z,42.77
2023-01-30T01:42:51.089Z,41.80
2023-01-30T01:43:25.246Z,41.67
2023-01-30T01:44:05.715Z,41.40
2023-01-30T01:45:11.552Z,41.87
2023-01-30T01:45:44.577Z,43.27
2023-01-30T01:46:23.654Z,45.37
2023-01-30T01:47:00.301Z,46.10
2023-01-30T01:47:38.033Z,45.10
2023-01-30T01:48:19.044Z,44.83
2023-01-30T01:49:00.236Z,44.83
2023-01-30T01:49:37.587Z,44.33
2023-01-30T01:50:31.123Z,45.87
2023-01-30T01:51:07.001Z,46.80
2023-01-30T01:51:47.450Z,47.03
2023-01-30T01:52:19.293Z,47.20
2023-01-30T01:52:59.228Z,45.70
2023-01-30T01:53:37.525Z,45.87
2023-01-30T01:54:16.977Z,43.90
2023-01-30T01:54:57.116Z,44.70
2023-01-30T01:55:33.985Z,44.60
2023-01-30T01:56:07.634Z,45.30
2023-01-30T01:56:43.918Z,45.50
2023-01-30T01:57:27.898Z,45.40
2023-01-30T01:58:13.002Z,44.20
2023-01-30T01:59:05.288Z,45.30
2023-01-30T01:59:50.274Z,45.33
2023-01-30T02:00:25.066Z,45.33
2023-01-30T02:00:59.581Z,43.50
2023-01-30T02:01:31.889Z,43.43
2023-01-30T02:02:09.268Z,44.80
2023-01-30T02:02:45.242Z,44.70
2023-01-30T02:03:23.560Z,45.10
2023-01-30T02:04:01.990Z,45.90
2023-01-30T02:04:57.726Z,45.20
2023-01-30T02:05:35.099Z,43.40
2023-01-30T02:06:07.523Z,45.00
2023-01-30T02:06:42.131Z,45.93
2023-01-30T02:07:17.597Z,44.30
2023-01-30T02:08:11.441Z,45.17
2023-01-30T02:08:57.383Z,44.50
2023-01-30T02:09:36.223Z,46.63
2023-01-30T02:10:13.789Z,43.53
2023-01-30T02:11:10.179Z,42.87
2023-01-30T02:11:52.702Z,44.27
2023-01-30T02:12:25.641Z,43.43
2023-01-30T02:12:57.330Z,43.10
2023-01-30T02:13:29.518Z,43.43
2023-01-30T02:14:03.105Z,45.17
2023-01-30T02:14:37.379Z,45.43
2023-01-30T02:15:09.488Z,45.63
2023-01-30T02:15:41.538Z,45.47
2023-01-30T02:16:14.028Z,43.47
2023-01-30T02:16:47.333Z,43.60
2023-01-30T02:17:20.025Z,43.60
2023-01-30T02:17:54.005Z,44.53
2023-01-30T02:18:27.397Z,44.53
2023-01-30T02:19:01.645Z,44.00
2023-01-30T02:20:03.430Z,44.37
2023-01-30T02:20:37.947Z,44.37
2023-01-30T02:21:59.414Z,43.77
2023-01-30T02:23:24.088Z,43.80
2023-01-30T02:24:16.098Z,43.17
2023-01-30T02:24:53.210Z,44.43
2023-01-30T02:26:06.107Z,45.03
2023-01-30T02:26:52.400Z,43.37
2023-01-30T02:28:18.712Z,45.13
2023-01-30T02:29:13.594Z,45.33
2023-01-30T02:30:03.700Z,45.17
2023-01-30T02:30:50.549Z,45.87
2023-01-30T02:31:25.650Z,43.97
2023-01-30T02:32:16.088Z,43.07
2023-01-30T02:33:01.335Z,43.23
2023-01-30T02:33:52.044Z,44.77
2023-01-30T02:34:31.845Z,44.73
2023-01-30T02:35:06.214Z,44.00
2023-01-30T02:35:56.156Z,44.67
2023-01-30T02:36:38.075Z,43.33
2023-01-30T02:37:15.669Z,42.90
2023-01-30T02:38:24.559Z,44.77
2023-01-30T02:39:19.249Z,44.60
2023-01-30T02:40:08.388Z,43.67
2023-01-30T02:40:52.094Z,44.53
2023-01-30T02:41:45.463Z,43.70
2023-01-30T02:42:40.357Z,42.73
2023-01-30T02:43:25.383Z,44.43
2023-01-30T02:44:05.834Z,43.77
2023-01-30T02:44:43.251Z,44.23
2023-01-30T02:45:20.894Z,43.60
2023-01-30T02:46:07.672Z,43.50
2023-01-30T02:46:58.109Z,45.60
2023-01-30T02:47:41.873Z,44.77
2023-01-30T02:48:21.724Z,47.63
2023-01-30T02:49:09.077Z,47.27
2023-01-30T02:49:55.962Z,46.57
2023-01-30T02:51:07.745Z,46.57
2023-01-30T02:51:43.156Z,45.93
2023-01-30T02:52:17.488Z,46.93
2023-01-30T02:52:50.193Z,45.90
2023-01-30T02:53:22.031Z,46.53
2023-01-30T02:53:54.602Z,45.17
2023-01-30T02:54:29.191Z,45.73
2023-01-30T02:55:02.662Z,46.03
2023-01-30T02:55:35.690Z,46.13
2023-01-30T02:56:07.602Z,46.23
2023-01-30T02:56:46.920Z,45.97
2023-01-30T02:57:24.285Z,46.63
2023-01-30T02:57:56.308Z,44.63
2023-01-30T02:58:37.199Z,44.67
2023-01-30T02:59:09.246Z,44.50
2023-01-30T02:59:47.245Z,43.63
2023-01-30T03:00:27.771Z,44.63
2023-01-30T03:01:20.485Z,42.63
2023-01-30T03:02:19.432Z,44.80
2023-01-30T03:03:07.508Z,43.03
2023-01-30T03:03:51.038Z,41.03
2023-01-30T03:04:31.118Z,43.53
2023-01-30T03:05:28.974Z,42.37
2023-01-30T03:06:09.319Z,42.53
2023-01-30T03:07:01.507Z,43.30
2023-01-30T03:07:46.530Z,43.50
2023-01-30T03:08:36.899Z,41.33
2023-01-30T03:09:11.165Z,41.70
2023-01-30T03:10:13.122Z,41.10
2023-01-30T03:10:47.493Z,40.17
2023-01-30T03:11:24.470Z,41.47
2023-01-30T03:12:16.751Z,42.47
2023-01-30T03:13:20.910Z,41.70
2023-01-30T03:14:04.157Z,40.63
2023-01-30T03:14:48.312Z,41.53
2023-01-30T03:16:09.408Z,41.80
2023-01-30T03:16:44.648Z,40.43
2023-01-30T03:17:20.867Z,40.83
2023-01-30T03:17:56.390Z,41.00
2023-01-30T03:18:31.178Z,41.07
2023-01-30T03:19:06.022Z,42.20
2023-01-30T03:19:38.380Z,40.50
2023-01-30T03:20:10.895Z,39.03
2023-01-30T03:20:42.657Z,40.17
2023-01-30T03:21:21.640Z,40.27
2023-01-30T03:21:53.272Z,40.67
2023-01-30T03:22:24.956Z,41.07
2023-01-30T03:22:56.631Z,40.67
2023-01-30T03:23:28.314Z,40.43
2023-01-30T03:23:59.970Z,40.63
2023-01-30T03:24:31.670Z,40.93
2023-01-30T03:25:03.440Z,39.97
2023-01-30T03:25:38.255Z,40.33
2023-01-30T03:26:18.375Z,41.13
2023-01-30T03:27:05.828Z,41.07
2023-01-30T03:27:39.085Z,42.50
2023-01-30T03:28:12.783Z,41.47
2023-01-30T03:28:47.398Z,40.97
2023-01-30T03:29:19.043Z,40.53
2023-01-30T03:29:54.822Z,40.97
2023-01-30T03:30:26.809Z,40.23
2023-01-30T03:30:58.676Z,40.47
2023-01-30T03:31:30.583Z,40.47
2023-01-30T03:32:02.454Z,41.30
2023-01-30T03:32:34.105Z,40.90
2023-01-30T03:33:07.851Z,40.03
2023-01-30T03:33:41.901Z,40.07
2023-01-30T03:34:13.593Z,40.93
2023-01-30T03:34:45.236Z,39.97
2023-01-30T03:35:18.163Z,39.87
2023-01-30T03:35:52.286Z,38.90
2023-01-30T03:36:24.043Z,39.90
2023-01-30T03:36:57.566Z,39.60
2023-01-30T03:37:29.356Z,39.57
2023-01-30T03:38:03.674Z,40.20
2023-01-30T03:38:36.194Z,39.13
2023-01-30T03:39:08.453Z,39.13
2023-01-30T03:39:40.295Z,39.63
2023-01-30T03:40:14.515Z,40.97
2023-01-30T03:40:46.586Z,41.43
2023-01-30T03:41:18.356Z,40.47
2023-01-30T03:41:50.436Z,39.20
2023-01-30T03:42:22.338Z,39.70
2023-01-30T03:42:53.969Z,39.67
2023-01-30T03:43:25.638Z,39.67
2023-01-30T03:43:59.972Z,40.10
2023-01-30T03:44:31.662Z,41.63
2023-01-30T03:45:03.565Z,40.73
2023-01-30T03:45:35.320Z,41.23
2023-01-30T03:46:07.039Z,40.13
2023-01-30T03:46:38.741Z,40.67
2023-01-30T03:47:10.417Z,41.00
2023-01-30T03:47:42.043Z,42.27
2023-01-30T03:48:15.762Z,41.43
2023-01-30T03:48:47.417Z,41.73
2023-01-30T03:49:19.097Z,42.07
2023-01-30T03:49:50.760Z,39.93
2023-01-30T03:50:22.439Z,39.87
2023-01-30T03:50:54.473Z,39.23
2023-01-30T03:51:26.182Z,40.53
2023-01-30T03:51:57.839Z,42.53
2023-01-30T03:52:29.478Z,41.40
2023-01-30T03:53:03.576Z,43.07
2023-01-30T03:53:37.265Z,42.10
2023-01-30T03:54:16.329Z,41.43
2023-01-30T03:54:48.160Z,40.57
2023-01-30T03:55:20.054Z,41.13
2023-01-30T03:55:53.686Z,40.80
2023-01-30T03:56:25.522Z,40.77
2023-01-30T03:56:58.637Z,40.93
2023-01-30T03:57:30.473Z,39.63
2023-01-30T03:58:02.130Z,40.03
2023-01-30T03:58:33.795Z,41.53
2023-01-30T03:59:05.409Z,40.20
2023-01-30T03:59:37.062Z,40.67
2023-01-30T04:00:09.605Z,41.70
2023-01-30T04:00:41.253Z,41.93
2023-01-30T04:01:14.977Z,41.83
2023-01-30T04:01:46.651Z,40.67
2023-01-30T04:02:23.074Z,41.17
2023-01-30T04:02:55.273Z,41.63
2023-01-30T04:03:28.180Z,39.90
2023-01-30T04:03:59.925Z,40.23
2023-01-30T04:04:34.519Z,41.10
2023-01-30T04:05:06.578Z,40.57
2023-01-30T04:05:40.831Z,40.40
2023-01-30T04:06:12.478Z,39.70
2023-01-30T04:06:44.134Z,41.97
2023-01-30T04:07:17.154Z,41.67
2023-01-30T04:07:49.446Z,40.23
2023-01-30T04:08:21.185Z,40.57
2023-01-30T04:08:55.655Z,40.70
2023-01-30T04:09:27.384Z,40.00
2023-01-30T04:09:59.032Z,40.83
2023-01-30T04:10:30.679Z,40.57
2023-01-30T04:11:02.359Z,41.47
2023-01-30T04:11:34.011Z,42.07
2023-01-30T04:12:05.938Z,41.53
2023-01-30T04:12:40.178Z,41.10
2023-01-30T04:13:11.830Z,40.53
2023-01-30T04:13:43.458Z,41.20
2023-01-30T04:14:17.719Z,40.23
2023-01-30T04:14:49.367Z,41.30
2023-01-30T04:15:25.103Z,42.20
2023-01-30T04:16:20.715Z,41.10
2023-01-30T04:16:52.433Z,40.43
2023-01-30T04:17:26.419Z,39.90
2023-01-30T04:17:58.164Z,41.77
2023-01-30T04:18:29.821Z,41.63
2023-01-30T04:19:04.267Z,41.53
2023-01-30T04:19:35.907Z,43.07
2023-01-30T04:20:12.106Z,43.37
2023-01-30T04:20:44.898Z,42.80
2023-01-30T04:21:17.008Z,42.43
2023-01-30T04:21:48.660Z,45.30
2023-01-30T04:22:20.319Z,44.10
2023-01-30T04:22:54.290Z,42.87
2023-01-30T04:23:25.938Z,44.90
2023-01-30T04:24:01.906Z,45.33
2023-01-30T04:24:35.123Z,45.93
2023-01-30T04:25:07.008Z,46.77
2023-01-30T04:25:38.644Z,45.87
2023-01-30T04:26:14.700Z,44.97
2023-01-30T04:26:47.937Z,44.07
2023-01-30T04:27:22.225Z,44.10
2023-01-30T04:27:53.857Z,41.87
2023-01-30T04:28:25.994Z,42.00
2023-01-30T04:28:59.159Z,44.20
2023-01-30T04:29:30.801Z,44.27
2023-01-30T04:30:02.531Z,42.93
2023-01-30T04:30:36.297Z,43.27
2023-01-30T04:31:08.172Z,42.67
2023-01-30T04:31:39.895Z,43.90
2023-01-30T04:32:11.594Z,43.53
2023-01-30T04:32:52.880Z,43.63
2023-01-30T04:33:33.233Z,41.93
2023-01-30T04:34:07.556Z,42.57
2023-01-30T04:34:40.721Z,42.63
2023-01-30T04:35:14.377Z,42.47
2023-01-30T04:35:57.329Z,42.53
2023-01-30T04:36:32.099Z,40.70
2023-01-30T04:37:03.803Z,41.53
2023-01-30T04:37:35.575Z,41.83
2023-01-30T04:38:07.278Z,43.00
2023-01-30T04:38:39.542Z,43.47
2023-01-30T04:39:11.202Z,44.80
2023-01-30T04:39:42.874Z,44.83
2023-01-30T04:40:17.179Z,44.00
2023-01-30T04:40:51.820Z,44.70
2023-01-30T04:41:25.820Z,46.53
2023-01-30T04:41:57.470Z,47.93
2023-01-30T04:42:29.121Z,48.00
2023-01-30T04:43:00.779Z,51.30
2023-01-30T04:43:32.482Z,52.40
2023-01-30T04:44:04.240Z,52.53
2023-01-30T04:44:35.859Z,50.43
2023-01-30T04:45:08.042Z,49.43
2023-01-30T04:45:43.522Z,50.00
2023-01-30T04:46:15.223Z,49.90
2023-01-30T04:46:46.953Z,49.53
2023-01-30T04:47:18.654Z,49.80
2023-01-30T04:47:52.694Z,48.47
2023-01-30T04:48:29.403Z,48.00
2023-01-30T04:49:01.040Z,49.37
2023-01-30T04:49:32.685Z,52.70
2023-01-30T04:50:04.611Z,53.27
2023-01-30T04:50:36.269Z,52.50
2023-01-30T04:51:10.849Z,51.47
2023-01-30T04:51:42.502Z,54.80
2023-01-30T04:52:14.157Z,55.53
2023-01-30T04:52:45.831Z,55.20
2023-01-30T04:53:18.424Z,54.83
2023-01-30T04:53:50.117Z,55.57
2023-01-30T04:54:21.926Z,58.13
2023-01-30T04:55:00.925Z,59.37
2023-01-30T04:55:32.964Z,58.10
2023-01-30T04:56:05.082Z,57.27
2023-01-30T04:56:36.749Z,60.27
2023-01-30T04:57:08.448Z,59.57
2023-01-30T04:57:40.092Z,57.60
2023-01-30T04:58:13.360Z,54.87
2023-01-30T04:58:45.058Z,51.00
2023-01-30T04:59:16.787Z,51.17
2023-01-30T04:59:48.544Z,49.93
2023-01-30T05:00:20.323Z,49.93
2023-01-30T05:00:52.016Z,48.83
2023-01-30T05:01:23.722Z,48.23
2023-01-30T05:01:55.626Z,49.03
2023-01-30T05:02:27.330Z,47.87
2023-01-30T05:02:59.361Z,46.90
2023-01-30T05:03:30.992Z,45.57
2023-01-30T05:04:03.794Z,44.50
2023-01-30T05:04:35.517Z,45.07
2023-01-30T05:05:07.434Z,42.90
2023-01-30T05:05:39.171Z,44.13
2023-01-30T05:06:10.909Z,44.40
2023-01-30T05:06:42.628Z,44.17
2023-01-30T05:07:14.260Z,45.53
2023-01-30T05:07:54.922Z,45.03
2023-01-30T05:08:26.572Z,43.87
2023-01-30T05:08:58.721Z,44.47
2023-01-30T05:09:30.347Z,44.87
2023-01-30T05:10:02.998Z,44.20
2023-01-30T05:10:37.224Z,43.00
2023-01-30T05:11:08.907Z,43.67
2023-01-30T05:11:40.579Z,44.77
2023-01-30T05:12:14.672Z,43.33
2023-01-30T05:12:49.087Z,42.57
2023-01-30T05:13:23.936Z,42.60
2023-01-30T05:13:55.637Z,44.37
2023-01-30T05:14:27.268Z,45.23
2023-01-30T05:14:58.924Z,45.20
2023-01-30T05:15:32.680Z,45.13
2023-01-30T05:16:04.651Z,45.93
2023-01-30T05:16:36.287Z,46.93
2023-01-30T05:17:09.618Z,45.23
2023-01-30T05:17:44.719Z,46.70
2023-01-30T05:18:16.453Z,48.27
2023-01-30T05:18:48.675Z,47.03
2023-01-30T05:19:20.309Z,48.03
2023-01-30T05:19:54.294Z,48.87
2023-01-30T05:20:25.980Z,48.87
2023-01-30T05:21:13.446Z,49.97
2023-01-30T05:21:46.619Z,54.17
2023-01-30T05:22:18.271Z,52.67
2023-01-30T05:22:49.992Z,54.80
2023-01-30T05:23:21.632Z,55.90
2023-01-30T05:23:53.819Z,58.40
2023-01-30T05:24:26.922Z,65.40
2023-01-30T05:24:58.586Z,65.00
2023-01-30T05:25:37.430Z,74.00
2023-01-30T05:26:10.280Z,80.07
2023-01-30T05:26:41.952Z,81.07
2023-01-30T05:27:13.595Z,89.33
2023-01-30T05:27:45.240Z,99.13
2023-01-30T05:28:16.900Z,99.23
2023-01-30T05:28:56.373Z,93.63
2023-01-30T05:29:28.069Z,88.83
2023-01-30T05:29:59.716Z,88.73
2023-01-30T05:30:31.429Z,84.53
2023-01-30T05:31:09.243Z,86.00
2023-01-30T05:31:41.057Z,80.37
2023-01-30T05:32:14.398Z,77.77
2023-01-30T05:32:53.516Z,75.83
2023-01-30T05:33:27.222Z,73.27
2023-01-30T05:33:58.967Z,70.60
2023-01-30T05:34:30.687Z,67.87
2023-01-30T05:35:02.383Z,67.23
2023-01-30T05:35:36.102Z,64.50
2023-01-30T05:36:08.299Z,62.77
2023-01-30T05:36:40.112Z,57.67
2023-01-30T05:37:12.557Z,52.83
2023-01-30T05:37:44.245Z,50.67
2023-01-30T05:38:18.568Z,49.47
2023-01-30T05:38:52.176Z,46.87
2023-01-30T05:39:23.904Z,44.53
2023-01-30T05:39:55.556Z,43.27
2023-01-30T05:40:35.483Z,42.07
2023-01-30T05:41:08.424Z,41.90
2023-01-30T05:41:40.283Z,42.93
2023-01-30T05:42:15.131Z,41.43
2023-01-30T05:42:46.806Z,41.97
2023-01-30T05:43:18.502Z,40.13
2023-01-30T05:43:51.080Z,41.13
2023-01-30T05:44:22.792Z,41.13
2023-01-30T05:44:54.479Z,43.27
2023-01-30T05:45:26.136Z,40.07
2023-01-30T05:45:59.647Z,41.13
2023-01-30T05:46:31.316Z,41.07
2023-01-30T05:47:03.003Z,41.97
2023-01-30T05:47:36.723Z,42.67
2023-01-30T05:48:08.368Z,41.87
2023-01-30T05:48:42.382Z,38.53
2023-01-30T05:49:14.282Z,37.63
2023-01-30T05:49:47.154Z,38.60
2023-01-30T05:50:18.873Z,42.97
2023-01-30T05:51:41.419Z,47.67
2023-01-30T05:52:13.057Z,51.47
2023-01-30T05:52:47.298Z,53.70
2023-01-30T05:53:23.288Z,52.20
2023-01-30T05:53:57.304Z,49.10
2023-01-30T05:54:29.005Z,51.50
2023-01-30T05:55:00.678Z,49.60
2023-01-30T05:55:32.330Z,47.77
2023-01-30T05:56:08.112Z,44.20
2023-01-30T05:56:39.955Z,41.67
2023-01-30T05:57:12.720Z,40.77
2023-01-30T05:57:44.384Z,39.90
2023-01-30T05:58:16.056Z,39.03
2023-01-30T05:58:55.050Z,39.73
2023-01-30T05:59:29.373Z,40.17
2023-01-30T06:00:01.008Z,41.67
2023-01-30T06:00:32.701Z,41.97
2023-01-30T06:01:12.538Z,41.57
2023-01-30T06:01:47.085Z,40.37
2023-01-30T06:02:18.714Z,39.37
2023-01-30T06:02:50.400Z,41.27
2023-01-30T06:03:24.188Z,43.30
2023-01-30T06:03:58.680Z,41.37
2023-01-30T06:04:30.361Z,42.97
2023-01-30T06:05:05.970Z,42.77
2023-01-30T06:05:38.942Z,43.83
2023-01-30T06:06:12.666Z,43.60
2023-01-30T06:06:45.689Z,45.73
2023-01-30T06:07:17.337Z,44.07
2023-01-30T06:07:49.024Z,44.53
2023-01-30T06:08:22.812Z,45.17
2023-01-30T06:08:57.575Z,45.23
2023-01-30T06:09:31.753Z,45.23
2023-01-30T06:10:03.612Z,47.13
2023-01-30T06:10:38.427Z,46.43
2023-01-30T06:11:13.831Z,45.13
2023-01-30T06:11:45.606Z,45.07
2023-01-30T06:12:18.653Z,42.80
2023-01-30T06:12:50.256Z,42.57
2023-01-30T06:13:21.924Z,45.67
2023-01-30T06:13:53.748Z,46.57
2023-01-30T06:14:25.424Z,47.57
2023-01-30T06:14:57.146Z,48.33
2023-01-30T06:15:31.603Z,49.13
2023-01-30T06:16:03.349Z,49.23
2023-01-30T06:16:36.991Z,47.43
2023-01-30T06:17:08.725Z,48.23
2023-01-30T06:17:46.321Z,49.70
2023-01-30T06:18:20.177Z,49.83
2023-01-30T06:18:51.888Z,49.67
2023-01-30T06:19:25.887Z,50.93
2023-01-30T06:19:57.537Z,51.27
2023-01-30T06:20:29.177Z,51.97
2023-01-30T06:21:03.698Z,52.13
2023-01-30T06:21:35.388Z,51.30
2023-01-30T06:22:08.157Z,49.33
2023-01-30T06:22:39.813Z,47.73
2023-01-30T06:23:11.446Z,47.93
2023-01-30T06:23:43.748Z,47.10
2023-01-30T06:24:15.550Z,47.40
2023-01-30T06:24:47.252Z,47.30
2023-01-30T06:25:26.074Z,48.13
2023-01-30T06:26:03.272Z,46.43
2023-01-30T06:26:37.795Z,47.37
2023-01-30T06:27:09.477Z,47.73
2023-01-30T06:27:43.561Z,46.23
2023-01-30T06:28:16.308Z,46.43
2023-01-30T06:28:48.477Z,45.47
2023-01-30T06:29:20.131Z,46.00
2023-01-30T06:29:51.761Z,44.10
2023-01-30T06:30:23.491Z,45.50
2023-01-30T06:30:55.291Z,46.43
2023-01-30T06:31:30.130Z,46.13
2023-01-30T06:32:01.921Z,46.63
2023-01-30T06:32:33.596Z,45.80
2023-01-30T06:33:05.728Z,46.63
2023-01-30T06:33:37.558Z,45.50
2023-01-30T06:34:12.998Z,45.87
2023-01-30T06:34:44.639Z,46.23
2023-01-30T06:35:16.767Z,47.20
2023-01-30T06:35:51.305Z,47.13
2023-01-30T06:36:22.912Z,48.43
2023-01-30T06:36:54.613Z,47.97
2023-01-30T06:37:26.263Z,46.37
2023-01-30T06:37:57.917Z,44.40
2023-01-30T06:38:29.663Z,45.70
2023-01-30T06:39:03.664Z,44.27
2023-01-30T06:39:35.392Z,44.03
2023-01-30T06:40:07.406Z,42.90
2023-01-30T06:40:39.819Z,43.90
2023-01-30T06:41:11.557Z,44.20
2023-01-30T06:41:43.173Z,43.27
2023-01-30T06:42:14.894Z,42.50
2023-01-30T06:42:48.024Z,42.13
2023-01-30T06:43:21.507Z,40.47
2023-01-30T06:43:53.177Z,41.37
2023-01-30T06:44:24.825Z,42.93
2023-01-30T06:44:56.483Z,42.10
2023-01-30T06:45:28.199Z,42.43
2023-01-30T06:46:02.406Z,41.97
2023-01-30T06:46:34.083Z,42.07
2023-01-30T06:47:05.743Z,42.43
2023-01-30T06:47:52.446Z,44.23
2023-01-30T06:48:24.098Z,44.50
2023-01-30T06:48:55.940Z,44.53
2023-01-30T06:49:27.610Z,45.73
2023-01-30T06:49:59.251Z,46.20
2023-01-30T06:50:32.153Z,48.17
2023-01-30T06:51:03.850Z,48.13
2023-01-30T06:51:37.574Z,47.97
2023-01-30T06:52:09.912Z,48.07
2023-01-30T06:52:48.379Z,50.40
2023-01-30T06:53:20.215Z,48.70
2023-01-30T06:53:53.572Z,48.80
2023-01-30T06:54:25.243Z,47.90
2023-01-30T06:54:56.884Z,47.87
2023-01-30T06:55:28.704Z,47.43
2023-01-30T06:56:03.893Z,48.07
2023-01-30T06:56:35.549Z,47.53
2023-01-30T06:57:09.596Z,48.80
2023-01-30T06:57:44.605Z,48.13
2023-01-30T06:58:16.244Z,48.47
2023-01-30T06:58:47.898Z,48.87
2023-01-30T06:59:19.558Z,47.93
2023-01-30T06:59:51.191Z,46.50
2023-01-30T07:00:24.622Z,46.67
2023-01-30T07:00:56.692Z,45.40
2023-01-30T07:01:29.076Z,45.83
2023-01-30T07:02:00.836Z,46.63
2023-01-30T07:02:35.301Z,46.63
2023-01-30T07:03:14.788Z,47.87
2023-01-30T07:03:47.411Z,52.03
2023-01-30T07:04:23.652Z,54.33
2023-01-30T07:04:56.831Z,59.00
2023-01-30T07:05:29.056Z,60.63
2023-01-30T07:06:00.780Z,57.40
2023-01-30T07:06:32.580Z,56.13
2023-01-30T07:07:05.748Z,57.17
2023-01-30T07:07:43.069Z,55.37
2023-01-30T07:08:16.284Z,56.63
2023-01-30T07:08:49.114Z,57.90
2023-01-30T07:09:20.797Z,59.50
2023-01-30T07:10:07.019Z,60.73
2023-01-30T07:10:40.887Z,59.77
2023-01-30T07:11:12.613Z,57.27
2023-01-30T07:11:44.273Z,57.87
2023-01-30T07:12:16.067Z,57.30
2023-01-30T07:12:48.296Z,57.30
2023-01-30T07:13:20.134Z,56.83
2023-01-30T07:13:51.970Z,56.77
2023-01-30T07:14:25.936Z,56.60
2023-01-30T07:14:57.982Z,56.73
2023-01-30T07:15:30.548Z,57.80
2023-01-30T07:16:02.237Z,57.20
2023-01-30T07:16:39.464Z,57.00
2023-01-30T07:17:11.158Z,56.47
2023-01-30T07:17:43.320Z,57.40
2023-01-30T07:18:17.694Z,59.43
2023-01-30T07:18:49.371Z,66.60
2023-01-30T07:19:21.029Z,66.83
2023-01-30T07:19:55.004Z,65.87
2023-01-30T07:20:26.834Z,67.50
2023-01-30T07:20:58.469Z,66.90
2023-01-30T07:21:30.158Z,69.57
2023-01-30T07:22:03.268Z,70.30
2023-01-30T07:22:35.198Z,72.43
2023-01-30T07:23:12.828Z,69.40
2023-01-30T07:23:46.631Z,65.90
2023-01-30T07:24:18.297Z,65.70
2023-01-30T07:24:50.046Z,64.87
2023-01-30T07:25:24.191Z,63.33
2023-01-30T07:25:55.887Z,60.67
2023-01-30T07:26:30.834Z,59.73
2023-01-30T07:27:02.525Z,58.90
2023-01-30T07:27:41.792Z,60.73
2023-01-30T07:28:13.478Z,60.23
2023-01-30T07:28:47.183Z,61.97
2023-01-30T07:29:20.922Z,67.20
2023-01-30T07:29:52.630Z,68.93
2023-01-30T07:30:26.658Z,67.87
2023-01-30T07:31:02.041Z,67.97